Baton Rouge Metropolitan, Ryan Field
KBTR : now visible

Airfield :











YOU CAN JOIN US ON...

 
LOGIN :

Register | Disclaimer

   EN    FR    IT 

 









Legend :    VFR   Marginal VFR   IFR   Intensive IFR   Very Intensive IFR
Visi :
Ceiling :
>= 8 km
>= 3000ft
5 to 8 km
1000 to 3000 ft
1500m to 5 km
500 to 1000 ft
800 to 1500m
200 to 500 ft
< 800m
< 200 ft
Symbols :   Thunderstorms  Fog  Heavy snow  Heavy precipitations  Wind > 20 kt






- Airport Elevation : 70 ft
- IATA code : BTR


KBTR - Baton Rouge Metropolitan, Ryan Field

CURRENT METAR :
  • 282153Z 10013G18KT 10SM SCT120 18/08 A2987 RMK AO2 PRESFR SLP115 T01780083

EXPIRED METARs :
  • 282053Z 17003KT 10SM BKN037 BKN049 18/09 A2998 RMK AO2 SLP152 T01780089 56023
  • 281953Z 25007KT 10SM OVC037 18/09 A2999 RMK AO2 SLP155 T01780094
  • 281853Z 12007KT 10SM FEW029 SCT120 17/09 A3001 RMK AO2 SLP160 T01720089

TAF KBTR
Valid from the 28 at 18:00 until the 29 at 18:00 UTC


281746Z 2818/2918 12006KT P6SM SCT010
FM290600 11010KT P6SM -SHRA OVC025
FM291400 25007KT P6SM OVC003



MET'MAP, your aeronautical weather chart ! - Copyright ORBIFLY December 2007 - Disclaimer

ORBIFLY MET'MAP TEAM :

Programming & Development : Alexandra Zaïnal
Concept & original design : Baudouin d'Aumeries
Assistance for programming : Marc-Olivier Méhu
Technical & hardware support : Manuel Goepfert

Contact : metmap@orbifly.com




SOURCES & CREDITS :

   NOAA       Earth
Advisory